sensor_id;sensor_type;location;lat;lon;timestamp;P1;durP1;ratioP1;P2;durP2;ratioP2
52564;SDS011;38460;53.106;7.004;2023-07-30T00:01:57;8.05;;;4.40;;
52564;SDS011;38460;53.106;7.004;2023-07-30T00:04:24;7.03;;;3.92;;
52564;SDS011;38460;53.106;7.004;2023-07-30T00:06:50;7.68;;;3.60;;
52564;SDS011;38460;53.106;7.004;2023-07-30T00:09:16;6.97;;;3.40;;
52564;SDS011;38460;53.106;7.004;2023-07-30T00:11:41;7.72;;;3.78;;
52564;SDS011;38460;53.106;7.004;2023-07-30T00:14:07;6.05;;;3.35;;
52564;SDS011;38460;53.106;7.004;2023-07-30T00:16:33;8.02;;;3.75;;
52564;SDS011;38460;53.106;7.004;2023-07-30T00:18:59;9.25;;;3.72;;
52564;SDS011;38460;53.106;7.004;2023-07-30T00:21:24;5.47;;;3.20;;
52564;SDS011;38460;53.106;7.004;2023-07-30T00:23:50;6.25;;;3.35;;
52564;SDS011;38460;53.106;7.004;2023-07-30T00:26:16;6.25;;;3.40;;
52564;SDS011;38460;53.106;7.004;2023-07-30T00:28:41;8.40;;;3.20;;
52564;SDS011;38460;53.106;7.004;2023-07-30T00:31:07;6.75;;;3.47;;
52564;SDS011;38460;53.106;7.004;2023-07-30T00:33:33;9.35;;;4.05;;
52564;SDS011;38460;53.106;7.004;2023-07-30T00:35:59;7.38;;;3.92;;
52564;SDS011;38460;53.106;7.004;2023-07-30T00:38:24;10.65;;;3.80;;
52564;SDS011;38460;53.106;7.004;2023-07-30T00:40:50;6.82;;;3.85;;
52564;SDS011;38460;53.106;7.004;2023-07-30T00:43:16;7.63;;;3.92;;
52564;SDS011;38460;53.106;7.004;2023-07-30T00:45:42;7.45;;;4.30;;
52564;SDS011;38460;53.106;7.004;2023-07-30T00:48:09;6.43;;;3.70;;
52564;SDS011;38460;53.106;7.004;2023-07-30T00:50:38;7.60;;;3.92;;
52564;SDS011;38460;53.106;7.004;2023-07-30T00:53:05;5.53;;;3.53;;
52564;SDS011;38460;53.106;7.004;2023-07-30T00:55:33;8.27;;;3.90;;
52564;SDS011;38460;53.106;7.004;2023-07-30T00:58:00;6.57;;;3.90;;
52564;SDS011;38460;53.106;7.004;2023-07-30T01:00:26;8.18;;;3.92;;
52564;SDS011;38460;53.106;7.004;2023-07-30T01:02:53;5.68;;;3.70;;
52564;SDS011;38460;53.106;7.004;2023-07-30T01:05:19;8.50;;;4.22;;
52564;SDS011;38460;53.106;7.004;2023-07-30T01:07:45;7.30;;;3.97;;
52564;SDS011;38460;53.106;7.004;2023-07-30T01:10:11;7.95;;;4.25;;
52564;SDS011;38460;53.106;7.004;2023-07-30T01:12:37;9.55;;;3.65;;
52564;SDS011;38460;53.106;7.004;2023-07-30T01:15:04;10.02;;;4.25;;
52564;SDS011;38460;53.106;7.004;2023-07-30T01:17:30;10.07;;;4.28;;
52564;SDS011;38460;53.106;7.004;2023-07-30T01:19:56;10.10;;;4.30;;
52564;SDS011;38460;53.106;7.004;2023-07-30T01:22:22;10.55;;;3.80;;
52564;SDS011;38460;53.106;7.004;2023-07-30T01:24:48;9.02;;;4.22;;
52564;SDS011;38460;53.106;7.004;2023-07-30T01:27:19;10.40;;;4.47;;
52564;SDS011;38460;53.106;7.004;2023-07-30T01:32:22;8.35;;;3.92;;
52564;SDS011;38460;53.106;7.004;2023-07-30T01:34:52;10.43;;;4.90;;
52564;SDS011;38460;53.106;7.004;2023-07-30T01:37:20;9.27;;;4.20;;
52564;SDS011;38460;53.106;7.004;2023-07-30T01:39:47;14.23;;;5.38;;
52564;SDS011;38460;53.106;7.004;2023-07-30T01:42:14;12.15;;;4.45;;
52564;SDS011;38460;53.106;7.004;2023-07-30T01:44:40;11.85;;;5.47;;
52564;SDS011;38460;53.106;7.004;2023-07-30T01:47:06;13.50;;;4.65;;
52564;SDS011;38460;53.106;7.004;2023-07-30T01:49:32;14.93;;;4.68;;
52564;SDS011;38460;53.106;7.004;2023-07-30T01:51:58;8.75;;;5.00;;
52564;SDS011;38460;53.106;7.004;2023-07-30T01:54:24;10.80;;;4.78;;
52564;SDS011;38460;53.106;7.004;2023-07-30T01:56:50;10.43;;;5.28;;
52564;SDS011;38460;53.106;7.004;2023-07-30T01:59:15;10.57;;;4.80;;
52564;SDS011;38460;53.106;7.004;2023-07-30T02:01:41;14.65;;;4.90;;
52564;SDS011;38460;53.106;7.004;2023-07-30T02:04:08;13.35;;;5.05;;
52564;SDS011;38460;53.106;7.004;2023-07-30T02:06:34;11.80;;;4.75;;
52564;SDS011;38460;53.106;7.004;2023-07-30T02:09:00;9.60;;;4.72;;
52564;SDS011;38460;53.106;7.004;2023-07-30T02:11:25;9.35;;;4.85;;
52564;SDS011;38460;53.106;7.004;2023-07-30T02:13:51;12.90;;;5.47;;
52564;SDS011;38460;53.106;7.004;2023-07-30T02:16:17;13.95;;;5.05;;
52564;SDS011;38460;53.106;7.004;2023-07-30T02:18:43;11.23;;;4.80;;
52564;SDS011;38460;53.106;7.004;2023-07-30T02:21:09;13.05;;;5.35;;
52564;SDS011;38460;53.106;7.004;2023-07-30T02:23:35;14.75;;;5.18;;
52564;SDS011;38460;53.106;7.004;2023-07-30T02:26:00;8.27;;;4.32;;
52564;SDS011;38460;53.106;7.004;2023-07-30T02:28:26;9.85;;;4.95;;
52564;SDS011;38460;53.106;7.004;2023-07-30T02:30:52;12.57;;;4.80;;
52564;SDS011;38460;53.106;7.004;2023-07-30T02:33:17;8.50;;;4.20;;
52564;SDS011;38460;53.106;7.004;2023-07-30T02:35:43;11.57;;;4.93;;
52564;SDS011;38460;53.106;7.004;2023-07-30T02:38:09;9.55;;;4.45;;
52564;SDS011;38460;53.106;7.004;2023-07-30T02:40:35;12.07;;;4.80;;
52564;SDS011;38460;53.106;7.004;2023-07-30T02:43:01;9.00;;;4.20;;
52564;SDS011;38460;53.106;7.004;2023-07-30T02:45:26;10.32;;;4.50;;
52564;SDS011;38460;53.106;7.004;2023-07-30T02:47:52;18.08;;;5.97;;
52564;SDS011;38460;53.106;7.004;2023-07-30T02:50:18;13.13;;;4.85;;
52564;SDS011;38460;53.106;7.004;2023-07-30T02:52:44;11.98;;;4.63;;
52564;SDS011;38460;53.106;7.004;2023-07-30T02:55:10;9.68;;;3.80;;
52564;SDS011;38460;53.106;7.004;2023-07-30T02:57:36;12.02;;;5.53;;
52564;SDS011;38460;53.106;7.004;2023-07-30T03:00:02;10.98;;;4.10;;
52564;SDS011;38460;53.106;7.004;2023-07-30T03:02:29;11.45;;;3.80;;
52564;SDS011;38460;53.106;7.004;2023-07-30T03:04:55;12.57;;;3.92;;
52564;SDS011;38460;53.106;7.004;2023-07-30T03:07:21;10.93;;;4.38;;
52564;SDS011;38460;53.106;7.004;2023-07-30T03:09:47;11.10;;;4.80;;
52564;SDS011;38460;53.106;7.004;2023-07-30T03:12:14;10.68;;;3.88;;
52564;SDS011;38460;53.106;7.004;2023-07-30T03:14:39;9.15;;;3.60;;
52564;SDS011;38460;53.106;7.004;2023-07-30T03:17:05;10.15;;;3.63;;
52564;SDS011;38460;53.106;7.004;2023-07-30T03:19:31;10.13;;;4.28;;
52564;SDS011;38460;53.106;7.004;2023-07-30T03:21:57;10.30;;;3.50;;
52564;SDS011;38460;53.106;7.004;2023-07-30T03:24:23;8.57;;;3.88;;
52564;SDS011;38460;53.106;7.004;2023-07-30T03:26:48;10.20;;;3.70;;
52564;SDS011;38460;53.106;7.004;2023-07-30T03:29:14;12.52;;;3.83;;
52564;SDS011;38460;53.106;7.004;2023-07-30T03:31:41;15.30;;;4.13;;
52564;SDS011;38460;53.106;7.004;2023-07-30T03:34:07;14.40;;;4.35;;
52564;SDS011;38460;53.106;7.004;2023-07-30T03:36:32;11.95;;;4.30;;
52564;SDS011;38460;53.106;7.004;2023-07-30T03:38:58;9.50;;;3.83;;
52564;SDS011;38460;53.106;7.004;2023-07-30T03:41:24;9.05;;;3.10;;
52564;SDS011;38460;53.106;7.004;2023-07-30T03:43:50;7.60;;;3.17;;
52564;SDS011;38460;53.106;7.004;2023-07-30T03:46:16;8.85;;;3.67;;
52564;SDS011;38460;53.106;7.004;2023-07-30T03:48:42;8.80;;;3.70;;
52564;SDS011;38460;53.106;7.004;2023-07-30T03:51:08;9.57;;;3.92;;
52564;SDS011;38460;53.106;7.004;2023-07-30T03:53:34;12.38;;;4.00;;
52564;SDS011;38460;53.106;7.004;2023-07-30T03:55:59;12.15;;;3.60;;
52564;SDS011;38460;53.106;7.004;2023-07-30T03:58:25;9.70;;;3.53;;
52564;SDS011;38460;53.106;7.004;2023-07-30T04:00:51;10.82;;;3.42;;
52564;SDS011;38460;53.106;7.004;2023-07-30T04:03:16;10.02;;;3.15;;
52564;SDS011;38460;53.106;7.004;2023-07-30T04:05:42;11.40;;;3.95;;
52564;SDS011;38460;53.106;7.004;2023-07-30T04:08:08;8.77;;;3.85;;
52564;SDS011;38460;53.106;7.004;2023-07-30T04:10:33;11.38;;;3.60;;
52564;SDS011;38460;53.106;7.004;2023-07-30T04:12:59;7.80;;;3.50;;
52564;SDS011;38460;53.106;7.004;2023-07-30T04:15:25;11.57;;;3.80;;
52564;SDS011;38460;53.106;7.004;2023-07-30T04:17:51;8.57;;;3.35;;
52564;SDS011;38460;53.106;7.004;2023-07-30T04:20:17;10.55;;;4.05;;
52564;SDS011;38460;53.106;7.004;2023-07-30T04:22:43;7.85;;;3.78;;
52564;SDS011;38460;53.106;7.004;2023-07-30T04:25:09;10.82;;;4.13;;
52564;SDS011;38460;53.106;7.004;2023-07-30T04:27:38;9.93;;;3.25;;
52564;SDS011;38460;53.106;7.004;2023-07-30T04:30:06;10.40;;;3.53;;
52564;SDS011;38460;53.106;7.004;2023-07-30T04:32:32;10.30;;;3.45;;
52564;SDS011;38460;53.106;7.004;2023-07-30T04:34:58;9.00;;;3.42;;
52564;SDS011;38460;53.106;7.004;2023-07-30T04:37:24;8.18;;;3.15;;
52564;SDS011;38460;53.106;7.004;2023-07-30T04:39:50;10.65;;;3.95;;
52564;SDS011;38460;53.106;7.004;2023-07-30T04:42:15;9.88;;;3.92;;
52564;SDS011;38460;53.106;7.004;2023-07-30T04:44:41;8.60;;;2.92;;
52564;SDS011;38460;53.106;7.004;2023-07-30T04:47:07;10.52;;;3.88;;
52564;SDS011;38460;53.106;7.004;2023-07-30T04:49:33;9.85;;;3.40;;
52564;SDS011;38460;53.106;7.004;2023-07-30T04:51:58;12.60;;;3.72;;
52564;SDS011;38460;53.106;7.004;2023-07-30T04:54:24;13.45;;;4.38;;
52564;SDS011;38460;53.106;7.004;2023-07-30T04:56:50;11.10;;;3.83;;
52564;SDS011;38460;53.106;7.004;2023-07-30T04:59:16;10.80;;;4.10;;
52564;SDS011;38460;53.106;7.004;2023-07-30T05:01:42;11.25;;;3.78;;
52564;SDS011;38460;53.106;7.004;2023-07-30T05:04:07;12.90;;;3.85;;
52564;SDS011;38460;53.106;7.004;2023-07-30T05:06:33;12.07;;;3.28;;
52564;SDS011;38460;53.106;7.004;2023-07-30T05:08:59;9.38;;;3.38;;
52564;SDS011;38460;53.106;7.004;2023-07-30T05:11:25;10.10;;;3.53;;
52564;SDS011;38460;53.106;7.004;2023-07-30T05:13:50;11.80;;;3.60;;
52564;SDS011;38460;53.106;7.004;2023-07-30T05:16:16;8.85;;;3.90;;
52564;SDS011;38460;53.106;7.004;2023-07-30T05:18:42;12.60;;;3.75;;
52564;SDS011;38460;53.106;7.004;2023-07-30T05:21:07;13.60;;;3.95;;
52564;SDS011;38460;53.106;7.004;2023-07-30T05:23:33;18.70;;;4.13;;
52564;SDS011;38460;53.106;7.004;2023-07-30T05:25:59;7.45;;;3.58;;
52564;SDS011;38460;53.106;7.004;2023-07-30T05:28:25;13.45;;;4.50;;
52564;SDS011;38460;53.106;7.004;2023-07-30T05:30:51;8.93;;;4.10;;
52564;SDS011;38460;53.106;7.004;2023-07-30T05:33:17;10.02;;;4.18;;
52564;SDS011;38460;53.106;7.004;2023-07-30T05:35:43;11.63;;;4.18;;
52564;SDS011;38460;53.106;7.004;2023-07-30T05:38:09;14.07;;;4.40;;
52564;SDS011;38460;53.106;7.004;2023-07-30T05:40:35;9.63;;;3.42;;
52564;SDS011;38460;53.106;7.004;2023-07-30T05:43:01;11.30;;;4.00;;
52564;SDS011;38460;53.106;7.004;2023-07-30T05:45:27;12.30;;;4.85;;
52564;SDS011;38460;53.106;7.004;2023-07-30T05:47:53;13.13;;;4.43;;
52564;SDS011;38460;53.106;7.004;2023-07-30T05:50:19;11.07;;;3.92;;
52564;SDS011;38460;53.106;7.004;2023-07-30T05:52:45;11.38;;;3.90;;
52564;SDS011;38460;53.106;7.004;2023-07-30T05:55:10;11.00;;;3.80;;
52564;SDS011;38460;53.106;7.004;2023-07-30T05:57:36;12.82;;;4.97;;
52564;SDS011;38460;53.106;7.004;2023-07-30T06:00:02;9.68;;;4.07;;
52564;SDS011;38460;53.106;7.004;2023-07-30T06:02:28;15.73;;;3.83;;
52564;SDS011;38460;53.106;7.004;2023-07-30T06:04:54;14.55;;;4.55;;
52564;SDS011;38460;53.106;7.004;2023-07-30T06:07:20;16.30;;;5.50;;
52564;SDS011;38460;53.106;7.004;2023-07-30T06:09:45;14.63;;;4.28;;
52564;SDS011;38460;53.106;7.004;2023-07-30T06:12:11;16.80;;;4.90;;
52564;SDS011;38460;53.106;7.004;2023-07-30T06:14:37;20.15;;;3.90;;
52564;SDS011;38460;53.106;7.004;2023-07-30T06:17:03;8.32;;;3.70;;
52564;SDS011;38460;53.106;7.004;2023-07-30T06:19:29;11.63;;;4.15;;
52564;SDS011;38460;53.106;7.004;2023-07-30T06:21:54;11.20;;;4.47;;
52564;SDS011;38460;53.106;7.004;2023-07-30T06:24:20;11.27;;;4.38;;
52564;SDS011;38460;53.106;7.004;2023-07-30T06:26:46;13.93;;;3.92;;
52564;SDS011;38460;53.106;7.004;2023-07-30T06:29:11;11.43;;;4.28;;
52564;SDS011;38460;53.106;7.004;2023-07-30T06:31:37;11.73;;;4.25;;
52564;SDS011;38460;53.106;7.004;2023-07-30T06:34:03;16.77;;;5.10;;
52564;SDS011;38460;53.106;7.004;2023-07-30T06:36:29;12.60;;;4.85;;
52564;SDS011;38460;53.106;7.004;2023-07-30T06:38:55;15.23;;;3.90;;
52564;SDS011;38460;53.106;7.004;2023-07-30T06:41:21;12.70;;;4.43;;
52564;SDS011;38460;53.106;7.004;2023-07-30T06:43:47;11.65;;;4.03;;
52564;SDS011;38460;53.106;7.004;2023-07-30T06:46:12;9.63;;;4.97;;
52564;SDS011;38460;53.106;7.004;2023-07-30T06:48:38;13.00;;;4.55;;
52564;SDS011;38460;53.106;7.004;2023-07-30T06:51:08;9.40;;;4.53;;
52564;SDS011;38460;53.106;7.004;2023-07-30T06:53:35;11.00;;;4.20;;
52564;SDS011;38460;53.106;7.004;2023-07-30T06:56:01;10.05;;;4.03;;
52564;SDS011;38460;53.106;7.004;2023-07-30T06:58:26;10.00;;;4.35;;
52564;SDS011;38460;53.106;7.004;2023-07-30T07:00:52;17.30;;;4.40;;
52564;SDS011;38460;53.106;7.004;2023-07-30T07:03:18;11.98;;;4.80;;
52564;SDS011;38460;53.106;7.004;2023-07-30T07:05:44;11.10;;;4.50;;
52564;SDS011;38460;53.106;7.004;2023-07-30T07:08:10;10.50;;;4.75;;
52564;SDS011;38460;53.106;7.004;2023-07-30T07:10:36;14.63;;;4.93;;
52564;SDS011;38460;53.106;7.004;2023-07-30T07:13:01;13.30;;;4.70;;
52564;SDS011;38460;53.106;7.004;2023-07-30T07:15:27;12.27;;;4.85;;
52564;SDS011;38460;53.106;7.004;2023-07-30T07:17:53;14.05;;;4.95;;
52564;SDS011;38460;53.106;7.004;2023-07-30T07:20:18;11.27;;;4.90;;
52564;SDS011;38460;53.106;7.004;2023-07-30T07:22:44;22.55;;;4.32;;
52564;SDS011;38460;53.106;7.004;2023-07-30T07:25:10;16.38;;;4.60;;
52564;SDS011;38460;53.106;7.004;2023-07-30T07:27:36;15.10;;;4.88;;
52564;SDS011;38460;53.106;7.004;2023-07-30T07:30:02;12.65;;;4.43;;
52564;SDS011;38460;53.106;7.004;2023-07-30T07:32:28;13.30;;;4.65;;
52564;SDS011;38460;53.106;7.004;2023-07-30T07:34:53;12.60;;;5.63;;
52564;SDS011;38460;53.106;7.004;2023-07-30T07:37:19;13.75;;;4.13;;
52564;SDS011;38460;53.106;7.004;2023-07-30T07:39:45;13.30;;;4.22;;
52564;SDS011;38460;53.106;7.004;2023-07-30T07:42:11;13.98;;;4.45;;
52564;SDS011;38460;53.106;7.004;2023-07-30T07:44:37;13.10;;;4.85;;
52564;SDS011;38460;53.106;7.004;2023-07-30T07:47:06;11.60;;;4.05;;
52564;SDS011;38460;53.106;7.004;2023-07-30T07:49:32;12.45;;;4.15;;
52564;SDS011;38460;53.106;7.004;2023-07-30T07:51:57;10.90;;;4.25;;
52564;SDS011;38460;53.106;7.004;2023-07-30T07:54:23;12.40;;;4.65;;
52564;SDS011;38460;53.106;7.004;2023-07-30T07:56:49;11.88;;;3.72;;
52564;SDS011;38460;53.106;7.004;2023-07-30T07:59:14;10.70;;;3.88;;
52564;SDS011;38460;53.106;7.004;2023-07-30T08:01:40;10.95;;;4.13;;
52564;SDS011;38460;53.106;7.004;2023-07-30T08:04:06;8.65;;;3.25;;
52564;SDS011;38460;53.106;7.004;2023-07-30T08:06:32;10.23;;;3.00;;
52564;SDS011;38460;53.106;7.004;2023-07-30T08:08:57;8.13;;;2.47;;
52564;SDS011;38460;53.106;7.004;2023-07-30T08:11:23;11.18;;;3.33;;
52564;SDS011;38460;53.106;7.004;2023-07-30T08:13:49;8.02;;;3.05;;
52564;SDS011;38460;53.106;7.004;2023-07-30T08:16:15;10.00;;;3.17;;
52564;SDS011;38460;53.106;7.004;2023-07-30T08:18:41;9.40;;;2.80;;
52564;SDS011;38460;53.106;7.004;2023-07-30T08:21:06;9.52;;;3.05;;
52564;SDS011;38460;53.106;7.004;2023-07-30T08:23:32;9.52;;;2.78;;
52564;SDS011;38460;53.106;7.004;2023-07-30T08:25:58;9.60;;;2.83;;
52564;SDS011;38460;53.106;7.004;2023-07-30T08:28:23;11.00;;;3.95;;
52564;SDS011;38460;53.106;7.004;2023-07-30T08:30:49;9.32;;;2.63;;
52564;SDS011;38460;53.106;7.004;2023-07-30T08:33:15;5.57;;;2.47;;
52564;SDS011;38460;53.106;7.004;2023-07-30T08:35:40;7.68;;;2.80;;
52564;SDS011;38460;53.106;7.004;2023-07-30T08:38:06;9.90;;;3.08;;
52564;SDS011;38460;53.106;7.004;2023-07-30T08:40:32;6.10;;;2.60;;
52564;SDS011;38460;53.106;7.004;2023-07-30T08:42:58;7.63;;;2.47;;
52564;SDS011;38460;53.106;7.004;2023-07-30T08:45:25;6.45;;;2.38;;
52564;SDS011;38460;53.106;7.004;2023-07-30T08:47:50;9.68;;;2.75;;
52564;SDS011;38460;53.106;7.004;2023-07-30T08:50:17;5.93;;;2.00;;
52564;SDS011;38460;53.106;7.004;2023-07-30T08:52:43;8.15;;;2.50;;
52564;SDS011;38460;53.106;7.004;2023-07-30T08:55:09;7.20;;;2.33;;
52564;SDS011;38460;53.106;7.004;2023-07-30T08:57:36;6.85;;;2.50;;
52564;SDS011;38460;53.106;7.004;2023-07-30T09:00:05;7.55;;;2.60;;
52564;SDS011;38460;53.106;7.004;2023-07-30T09:05:08;6.68;;;2.38;;
52564;SDS011;38460;53.106;7.004;2023-07-30T09:07:34;7.95;;;2.20;;
52564;SDS011;38460;53.106;7.004;2023-07-30T09:10:00;7.75;;;1.95;;
52564;SDS011;38460;53.106;7.004;2023-07-30T09:12:28;4.18;;;1.88;;
52564;SDS011;38460;53.106;7.004;2023-07-30T09:14:57;4.90;;;2.00;;
52564;SDS011;38460;53.106;7.004;2023-07-30T09:17:23;6.75;;;2.30;;
52564;SDS011;38460;53.106;7.004;2023-07-30T09:19:50;8.93;;;2.17;;
52564;SDS011;38460;53.106;7.004;2023-07-30T09:24:55;5.60;;;2.03;;
52564;SDS011;38460;53.106;7.004;2023-07-30T09:27:22;5.10;;;2.10;;
52564;SDS011;38460;53.106;7.004;2023-07-30T09:32:25;7.10;;;2.30;;
52564;SDS011;38460;53.106;7.004;2023-07-30T09:34:55;5.40;;;2.03;;
52564;SDS011;38460;53.106;7.004;2023-07-30T09:37:21;6.07;;;2.20;;
52564;SDS011;38460;53.106;7.004;2023-07-30T09:39:47;6.05;;;1.98;;
52564;SDS011;38460;53.106;7.004;2023-07-30T09:42:13;5.25;;;2.30;;
52564;SDS011;38460;53.106;7.004;2023-07-30T09:44:39;10.30;;;3.53;;
52564;SDS011;38460;53.106;7.004;2023-07-30T09:47:08;7.68;;;2.50;;
52564;SDS011;38460;53.106;7.004;2023-07-30T09:49:35;6.68;;;2.85;;
52564;SDS011;38460;53.106;7.004;2023-07-30T09:52:03;4.38;;;2.35;;
52564;SDS011;38460;53.106;7.004;2023-07-30T09:54:33;7.13;;;2.28;;
52564;SDS011;38460;53.106;7.004;2023-07-30T09:56:59;5.05;;;2.20;;
52564;SDS011;38460;53.106;7.004;2023-07-30T09:59:24;7.28;;;2.65;;
52564;SDS011;38460;53.106;7.004;2023-07-30T10:01:50;6.70;;;2.25;;
52564;SDS011;38460;53.106;7.004;2023-07-30T10:04:21;3.85;;;1.98;;
52564;SDS011;38460;53.106;7.004;2023-07-30T10:07:22;7.72;;;2.08;;
52564;SDS011;38460;53.106;7.004;2023-07-30T10:09:42;7.10;;;1.90;;
52564;SDS011;38460;53.106;7.004;2023-07-30T10:12:13;6.20;;;2.03;;
52564;SDS011;38460;53.106;7.004;2023-07-30T10:14:41;5.90;;;2.00;;
52564;SDS011;38460;53.106;7.004;2023-07-30T10:17:09;5.28;;;1.67;;
52564;SDS011;38460;53.106;7.004;2023-07-30T10:19:36;4.22;;;1.40;;
52564;SDS011;38460;53.106;7.004;2023-07-30T10:24:40;2.60;;;1.50;;
52564;SDS011;38460;53.106;7.004;2023-07-30T10:27:06;4.95;;;1.73;;
52564;SDS011;38460;53.106;7.004;2023-07-30T10:29:36;3.53;;;1.88;;
52564;SDS011;38460;53.106;7.004;2023-07-30T10:32:06;4.13;;;2.05;;
52564;SDS011;38460;53.106;7.004;2023-07-30T10:34:46;2.92;;;1.50;;
52564;SDS011;38460;53.106;7.004;2023-07-30T10:37:18;2.55;;;1.33;;
52564;SDS011;38460;53.106;7.004;2023-07-30T10:39:49;5.68;;;1.70;;
52564;SDS011;38460;53.106;7.004;2023-07-30T10:42:15;4.00;;;1.30;;
52564;SDS011;38460;53.106;7.004;2023-07-30T10:44:43;4.43;;;1.80;;
52564;SDS011;38460;53.106;7.004;2023-07-30T10:47:10;5.65;;;1.90;;
52564;SDS011;38460;53.106;7.004;2023-07-30T10:49:39;5.47;;;1.70;;
52564;SDS011;38460;53.106;7.004;2023-07-30T10:52:06;4.32;;;1.70;;
52564;SDS011;38460;53.106;7.004;2023-07-30T10:54:38;7.57;;;1.95;;
52564;SDS011;38460;53.106;7.004;2023-07-30T10:57:04;5.63;;;2.15;;
52564;SDS011;38460;53.106;7.004;2023-07-30T10:59:37;3.55;;;1.85;;
52564;SDS011;38460;53.106;7.004;2023-07-30T11:02:03;4.55;;;1.70;;
52564;SDS011;38460;53.106;7.004;2023-07-30T11:04:32;7.43;;;2.30;;
52564;SDS011;38460;53.106;7.004;2023-07-30T11:06:59;9.65;;;2.30;;
52564;SDS011;38460;53.106;7.004;2023-07-30T11:09:26;6.50;;;2.63;;
52564;SDS011;38460;53.106;7.004;2023-07-30T11:11:53;5.63;;;2.05;;
52564;SDS011;38460;53.106;7.004;2023-07-30T11:14:24;5.43;;;2.30;;
52564;SDS011;38460;53.106;7.004;2023-07-30T11:16:52;6.32;;;2.50;;
52564;SDS011;38460;53.106;7.004;2023-07-30T11:19:18;13.38;;;2.50;;
52564;SDS011;38460;53.106;7.004;2023-07-30T11:21:48;10.18;;;2.60;;
52564;SDS011;38460;53.106;7.004;2023-07-30T11:24:14;7.65;;;2.30;;
52564;SDS011;38460;53.106;7.004;2023-07-30T11:26:40;6.53;;;2.33;;
52564;SDS011;38460;53.106;7.004;2023-07-30T11:29:16;7.47;;;2.55;;
52564;SDS011;38460;53.106;7.004;2023-07-30T11:31:43;5.07;;;2.22;;
52564;SDS011;38460;53.106;7.004;2023-07-30T11:34:10;6.72;;;2.55;;
52564;SDS011;38460;53.106;7.004;2023-07-30T11:36:37;4.95;;;2.20;;
52564;SDS011;38460;53.106;7.004;2023-07-30T11:39:03;6.63;;;2.30;;
52564;SDS011;38460;53.106;7.004;2023-07-30T11:41:30;8.05;;;2.85;;
52564;SDS011;38460;53.106;7.004;2023-07-30T11:43:56;4.85;;;2.50;;
52564;SDS011;38460;53.106;7.004;2023-07-30T11:46:22;4.22;;;1.73;;
52564;SDS011;38460;53.106;7.004;2023-07-30T11:48:49;5.82;;;2.38;;
52564;SDS011;38460;53.106;7.004;2023-07-30T11:51:20;4.63;;;2.08;;
52564;SDS011;38460;53.106;7.004;2023-07-30T11:53:52;9.45;;;3.05;;
52564;SDS011;38460;53.106;7.004;2023-07-30T11:56:26;6.32;;;2.10;;
52564;SDS011;38460;53.106;7.004;2023-07-30T11:59:06;6.15;;;2.60;;
52564;SDS011;38460;53.106;7.004;2023-07-30T12:01:33;6.95;;;2.25;;
52564;SDS011;38460;53.106;7.004;2023-07-30T12:04:00;6.93;;;2.55;;
52564;SDS011;38460;53.106;7.004;2023-07-30T12:06:46;9.18;;;2.47;;
52564;SDS011;38460;53.106;7.004;2023-07-30T12:09:19;9.83;;;2.60;;
52564;SDS011;38460;53.106;7.004;2023-07-30T12:17:15;5.07;;;2.08;;
52564;SDS011;38460;53.106;7.004;2023-07-30T12:19:41;8.40;;;2.25;;
52564;SDS011;38460;53.106;7.004;2023-07-30T12:22:07;5.72;;;1.80;;
52564;SDS011;38460;53.106;7.004;2023-07-30T12:24:33;3.58;;;1.75;;
52564;SDS011;38460;53.106;7.004;2023-07-30T12:26:59;5.93;;;2.10;;
52564;SDS011;38460;53.106;7.004;2023-07-30T12:29:25;6.05;;;1.77;;
52564;SDS011;38460;53.106;7.004;2023-07-30T12:31:51;6.38;;;2.45;;
52564;SDS011;38460;53.106;7.004;2023-07-30T12:34:18;6.72;;;2.00;;
52564;SDS011;38460;53.106;7.004;2023-07-30T12:36:45;5.50;;;1.98;;
52564;SDS011;38460;53.106;7.004;2023-07-30T12:39:11;4.78;;;1.80;;
52564;SDS011;38460;53.106;7.004;2023-07-30T12:41:37;6.78;;;2.30;;
52564;SDS011;38460;53.106;7.004;2023-07-30T12:44:02;4.82;;;1.63;;
52564;SDS011;38460;53.106;7.004;2023-07-30T12:46:29;7.43;;;2.95;;
52564;SDS011;38460;53.106;7.004;2023-07-30T12:48:57;6.28;;;1.95;;
52564;SDS011;38460;53.106;7.004;2023-07-30T12:51:27;3.83;;;1.75;;
52564;SDS011;38460;53.106;7.004;2023-07-30T12:53:53;5.47;;;1.75;;
52564;SDS011;38460;53.106;7.004;2023-07-30T12:56:18;3.08;;;1.50;;
52564;SDS011;38460;53.106;7.004;2023-07-30T12:58:44;5.07;;;1.17;;
52564;SDS011;38460;53.106;7.004;2023-07-30T13:01:10;3.35;;;1.02;;
52564;SDS011;38460;53.106;7.004;2023-07-30T13:03:35;5.43;;;1.15;;
52564;SDS011;38460;53.106;7.004;2023-07-30T13:06:01;2.92;;;1.10;;
52564;SDS011;38460;53.106;7.004;2023-07-30T13:08:27;4.50;;;1.10;;
52564;SDS011;38460;53.106;7.004;2023-07-30T13:10:53;3.20;;;1.13;;
52564;SDS011;38460;53.106;7.004;2023-07-30T13:13:19;2.42;;;1.30;;
52564;SDS011;38460;53.106;7.004;2023-07-30T13:15:44;3.15;;;1.17;;
52564;SDS011;38460;53.106;7.004;2023-07-30T13:18:10;4.55;;;1.20;;
52564;SDS011;38460;53.106;7.004;2023-07-30T13:20:36;4.30;;;1.10;;
52564;SDS011;38460;53.106;7.004;2023-07-30T13:23:01;1.80;;;1.00;;
52564;SDS011;38460;53.106;7.004;2023-07-30T13:25:27;3.47;;;1.10;;
52564;SDS011;38460;53.106;7.004;2023-07-30T13:27:53;3.67;;;1.40;;
52564;SDS011;38460;53.106;7.004;2023-07-30T13:30:19;3.42;;;1.40;;
52564;SDS011;38460;53.106;7.004;2023-07-30T13:32:45;3.47;;;1.58;;
52564;SDS011;38460;53.106;7.004;2023-07-30T13:35:11;3.53;;;1.40;;
52564;SDS011;38460;53.106;7.004;2023-07-30T13:37:36;3.35;;;1.65;;
52564;SDS011;38460;53.106;7.004;2023-07-30T13:40:02;4.75;;;1.42;;
52564;SDS011;38460;53.106;7.004;2023-07-30T13:42:28;4.68;;;1.85;;
52564;SDS011;38460;53.106;7.004;2023-07-30T13:44:54;3.67;;;1.83;;
52564;SDS011;38460;53.106;7.004;2023-07-30T13:47:20;6.75;;;1.88;;
52564;SDS011;38460;53.106;7.004;2023-07-30T13:49:45;6.72;;;2.28;;
52564;SDS011;38460;53.106;7.004;2023-07-30T13:52:13;4.53;;;1.58;;
52564;SDS011;38460;53.106;7.004;2023-07-30T13:54:39;5.75;;;1.58;;
52564;SDS011;38460;53.106;7.004;2023-07-30T13:57:04;7.22;;;1.92;;
52564;SDS011;38460;53.106;7.004;2023-07-30T13:59:31;6.35;;;1.92;;
52564;SDS011;38460;53.106;7.004;2023-07-30T14:01:56;6.97;;;1.77;;
52564;SDS011;38460;53.106;7.004;2023-07-30T14:04:22;3.95;;;1.55;;
52564;SDS011;38460;53.106;7.004;2023-07-30T14:06:48;7.60;;;1.67;;
52564;SDS011;38460;53.106;7.004;2023-07-30T14:09:13;13.13;;;2.40;;
52564;SDS011;38460;53.106;7.004;2023-07-30T14:11:39;8.88;;;2.00;;
52564;SDS011;38460;53.106;7.004;2023-07-30T14:14:08;5.57;;;2.08;;
52564;SDS011;38460;53.106;7.004;2023-07-30T14:16:34;5.43;;;2.30;;
52564;SDS011;38460;53.106;7.004;2023-07-30T14:18:59;8.38;;;1.77;;
52564;SDS011;38460;53.106;7.004;2023-07-30T14:21:25;5.78;;;1.80;;
52564;SDS011;38460;53.106;7.004;2023-07-30T14:23:51;7.15;;;1.63;;
52564;SDS011;38460;53.106;7.004;2023-07-30T14:26:16;6.53;;;2.17;;
52564;SDS011;38460;53.106;7.004;2023-07-30T14:28:42;7.20;;;1.95;;
52564;SDS011;38460;53.106;7.004;2023-07-30T14:31:08;4.70;;;1.30;;
52564;SDS011;38460;53.106;7.004;2023-07-30T14:33:34;6.75;;;1.85;;
52564;SDS011;38460;53.106;7.004;2023-07-30T14:36:00;8.65;;;2.38;;
52564;SDS011;38460;53.106;7.004;2023-07-30T14:38:26;6.32;;;1.73;;
52564;SDS011;38460;53.106;7.004;2023-07-30T14:40:52;6.05;;;2.13;;
52564;SDS011;38460;53.106;7.004;2023-07-30T14:43:17;4.55;;;1.35;;
52564;SDS011;38460;53.106;7.004;2023-07-30T14:45:43;4.63;;;1.48;;
52564;SDS011;38460;53.106;7.004;2023-07-30T14:48:09;5.00;;;2.10;;
52564;SDS011;38460;53.106;7.004;2023-07-30T14:50:34;5.95;;;2.05;;
52564;SDS011;38460;53.106;7.004;2023-07-30T14:53:00;5.50;;;1.50;;
52564;SDS011;38460;53.106;7.004;2023-07-30T14:55:26;4.85;;;1.30;;
52564;SDS011;38460;53.106;7.004;2023-07-30T14:57:52;6.10;;;1.80;;